sensor_id;sensor_type;location;lat;lon;timestamp;P1;durP1;ratioP1;P2;durP2;ratioP2
828;SDS011;396;52.558;13.188;2023-04-22T00:00:40;10.70;;;4.13;;
828;SDS011;396;52.558;13.188;2023-04-22T00:03:06;11.67;;;4.13;;
828;SDS011;396;52.558;13.188;2023-04-22T00:05:34;10.53;;;3.53;;
828;SDS011;396;52.558;13.188;2023-04-22T00:08:02;8.77;;;4.03;;
828;SDS011;396;52.558;13.188;2023-04-22T00:10:44;11.73;;;4.23;;
828;SDS011;396;52.558;13.188;2023-04-22T00:13:13;9.83;;;3.80;;
828;SDS011;396;52.558;13.188;2023-04-22T00:15:39;10.37;;;4.03;;
828;SDS011;396;52.558;13.188;2023-04-22T00:18:06;10.17;;;4.63;;
828;SDS011;396;52.558;13.188;2023-04-22T00:20:37;14.63;;;4.03;;
828;SDS011;396;52.558;13.188;2023-04-22T00:23:05;11.27;;;3.93;;
828;SDS011;396;52.558;13.188;2023-04-22T00:25:32;9.10;;;3.60;;
828;SDS011;396;52.558;13.188;2023-04-22T00:27:58;11.20;;;3.33;;
828;SDS011;396;52.558;13.188;2023-04-22T00:30:26;8.17;;;3.80;;
828;SDS011;396;52.558;13.188;2023-04-22T00:32:53;13.43;;;4.07;;
828;SDS011;396;52.558;13.188;2023-04-22T00:35:20;11.70;;;3.63;;
828;SDS011;396;52.558;13.188;2023-04-22T00:37:46;7.60;;;3.70;;
828;SDS011;396;52.558;13.188;2023-04-22T00:40:13;8.60;;;3.37;;
828;SDS011;396;52.558;13.188;2023-04-22T00:42:40;10.10;;;4.50;;
828;SDS011;396;52.558;13.188;2023-04-22T00:45:09;9.67;;;4.17;;
828;SDS011;396;52.558;13.188;2023-04-22T00:47:38;10.10;;;4.27;;
828;SDS011;396;52.558;13.188;2023-04-22T00:50:06;7.50;;;3.00;;
828;SDS011;396;52.558;13.188;2023-04-22T00:52:33;7.40;;;3.23;;
828;SDS011;396;52.558;13.188;2023-04-22T00:55:00;8.47;;;3.20;;
828;SDS011;396;52.558;13.188;2023-04-22T00:57:27;9.40;;;4.23;;
828;SDS011;396;52.558;13.188;2023-04-22T00:59:55;9.10;;;3.60;;
828;SDS011;396;52.558;13.188;2023-04-22T01:02:22;13.13;;;3.80;;
828;SDS011;396;52.558;13.188;2023-04-22T01:04:51;12.00;;;4.00;;
828;SDS011;396;52.558;13.188;2023-04-22T01:07:19;8.20;;;3.40;;
828;SDS011;396;52.558;13.188;2023-04-22T01:09:45;8.93;;;3.70;;
828;SDS011;396;52.558;13.188;2023-04-22T01:12:12;8.43;;;3.70;;
828;SDS011;396;52.558;13.188;2023-04-22T01:14:39;10.87;;;3.27;;
828;SDS011;396;52.558;13.188;2023-04-22T01:17:06;9.77;;;3.97;;
828;SDS011;396;52.558;13.188;2023-04-22T01:19:35;8.87;;;3.87;;
828;SDS011;396;52.558;13.188;2023-04-22T01:22:03;7.73;;;3.63;;
828;SDS011;396;52.558;13.188;2023-04-22T01:24:33;8.70;;;4.17;;
828;SDS011;396;52.558;13.188;2023-04-22T01:27:00;8.80;;;3.40;;
828;SDS011;396;52.558;13.188;2023-04-22T01:29:27;9.00;;;3.17;;
828;SDS011;396;52.558;13.188;2023-04-22T01:31:54;11.30;;;3.90;;
828;SDS011;396;52.558;13.188;2023-04-22T01:34:21;9.40;;;3.83;;
828;SDS011;396;52.558;13.188;2023-04-22T01:36:48;10.30;;;4.30;;
828;SDS011;396;52.558;13.188;2023-04-22T01:39:15;7.67;;;3.70;;
828;SDS011;396;52.558;13.188;2023-04-22T01:41:43;8.33;;;3.40;;
828;SDS011;396;52.558;13.188;2023-04-22T01:44:10;9.63;;;4.37;;
828;SDS011;396;52.558;13.188;2023-04-22T01:46:36;9.10;;;3.67;;
828;SDS011;396;52.558;13.188;2023-04-22T01:49:03;14.87;;;3.50;;
828;SDS011;396;52.558;13.188;2023-04-22T01:51:29;8.90;;;3.90;;
828;SDS011;396;52.558;13.188;2023-04-22T01:53:56;8.93;;;3.93;;
828;SDS011;396;52.558;13.188;2023-04-22T01:56:23;8.00;;;3.53;;
828;SDS011;396;52.558;13.188;2023-04-22T01:58:51;8.67;;;3.60;;
828;SDS011;396;52.558;13.188;2023-04-22T02:01:17;10.73;;;4.77;;
828;SDS011;396;52.558;13.188;2023-04-22T02:03:44;10.23;;;4.30;;
828;SDS011;396;52.558;13.188;2023-04-22T02:06:10;9.57;;;4.07;;
828;SDS011;396;52.558;13.188;2023-04-22T02:08:37;9.20;;;4.10;;
828;SDS011;396;52.558;13.188;2023-04-22T02:11:04;11.43;;;4.33;;
828;SDS011;396;52.558;13.188;2023-04-22T02:13:34;10.07;;;4.30;;
828;SDS011;396;52.558;13.188;2023-04-22T02:16:03;9.67;;;4.07;;
828;SDS011;396;52.558;13.188;2023-04-22T02:18:30;10.93;;;3.60;;
828;SDS011;396;52.558;13.188;2023-04-22T02:20:57;8.87;;;3.93;;
828;SDS011;396;52.558;13.188;2023-04-22T02:23:23;7.20;;;3.10;;
828;SDS011;396;52.558;13.188;2023-04-22T02:25:51;11.83;;;4.50;;
828;SDS011;396;52.558;13.188;2023-04-22T02:28:18;12.57;;;3.90;;
828;SDS011;396;52.558;13.188;2023-04-22T02:30:44;9.23;;;3.80;;
828;SDS011;396;52.558;13.188;2023-04-22T02:33:13;12.37;;;4.10;;
828;SDS011;396;52.558;13.188;2023-04-22T02:35:39;10.03;;;3.90;;
828;SDS011;396;52.558;13.188;2023-04-22T02:38:06;11.60;;;5.00;;
828;SDS011;396;52.558;13.188;2023-04-22T02:40:32;12.00;;;5.20;;
828;SDS011;396;52.558;13.188;2023-04-22T02:42:59;9.93;;;3.50;;
828;SDS011;396;52.558;13.188;2023-04-22T02:45:26;9.20;;;4.23;;
828;SDS011;396;52.558;13.188;2023-04-22T02:47:52;9.70;;;4.40;;
828;SDS011;396;52.558;13.188;2023-04-22T02:50:20;9.00;;;4.30;;
828;SDS011;396;52.558;13.188;2023-04-22T02:52:47;8.80;;;4.17;;
828;SDS011;396;52.558;13.188;2023-04-22T02:55:13;11.43;;;4.30;;
828;SDS011;396;52.558;13.188;2023-04-22T02:57:40;10.43;;;4.10;;
828;SDS011;396;52.558;13.188;2023-04-22T03:00:07;9.87;;;4.40;;
828;SDS011;396;52.558;13.188;2023-04-22T03:02:35;10.00;;;3.73;;
828;SDS011;396;52.558;13.188;2023-04-22T03:05:02;8.70;;;3.70;;
828;SDS011;396;52.558;13.188;2023-04-22T03:07:30;8.30;;;3.57;;
828;SDS011;396;52.558;13.188;2023-04-22T03:09:57;11.10;;;5.20;;
828;SDS011;396;52.558;13.188;2023-04-22T03:12:23;9.10;;;3.70;;
828;SDS011;396;52.558;13.188;2023-04-22T03:14:50;11.77;;;4.43;;
828;SDS011;396;52.558;13.188;2023-04-22T03:17:17;11.23;;;4.27;;
828;SDS011;396;52.558;13.188;2023-04-22T03:19:44;10.87;;;4.33;;
828;SDS011;396;52.558;13.188;2023-04-22T03:22:11;8.70;;;4.00;;
828;SDS011;396;52.558;13.188;2023-04-22T03:24:39;8.70;;;4.00;;
828;SDS011;396;52.558;13.188;2023-04-22T03:27:06;12.33;;;4.50;;
828;SDS011;396;52.558;13.188;2023-04-22T03:29:33;9.60;;;3.73;;
828;SDS011;396;52.558;13.188;2023-04-22T03:31:59;11.93;;;3.93;;
828;SDS011;396;52.558;13.188;2023-04-22T03:34:26;20.10;;;4.80;;
828;SDS011;396;52.558;13.188;2023-04-22T03:36:53;11.20;;;3.57;;
828;SDS011;396;52.558;13.188;2023-04-22T03:39:19;13.27;;;3.83;;
828;SDS011;396;52.558;13.188;2023-04-22T03:41:47;10.07;;;4.10;;
828;SDS011;396;52.558;13.188;2023-04-22T03:44:14;9.70;;;3.90;;
828;SDS011;396;52.558;13.188;2023-04-22T03:46:40;17.60;;;4.87;;
828;SDS011;396;52.558;13.188;2023-04-22T03:49:07;10.60;;;4.40;;
828;SDS011;396;52.558;13.188;2023-04-22T03:51:33;11.90;;;4.60;;
828;SDS011;396;52.558;13.188;2023-04-22T03:54:00;11.27;;;4.80;;
828;SDS011;396;52.558;13.188;2023-04-22T03:56:27;9.90;;;4.23;;
828;SDS011;396;52.558;13.188;2023-04-22T03:58:55;13.30;;;4.13;;
828;SDS011;396;52.558;13.188;2023-04-22T04:01:21;9.90;;;4.80;;
828;SDS011;396;52.558;13.188;2023-04-22T04:03:48;11.80;;;4.43;;
828;SDS011;396;52.558;13.188;2023-04-22T04:06:15;10.67;;;4.40;;
828;SDS011;396;52.558;13.188;2023-04-22T04:08:41;11.53;;;3.90;;
828;SDS011;396;52.558;13.188;2023-04-22T04:11:08;11.80;;;4.40;;
828;SDS011;396;52.558;13.188;2023-04-22T04:13:35;12.80;;;4.60;;
828;SDS011;396;52.558;13.188;2023-04-22T04:16:03;13.67;;;4.73;;
828;SDS011;396;52.558;13.188;2023-04-22T04:18:31;11.40;;;5.07;;
828;SDS011;396;52.558;13.188;2023-04-22T04:20:57;11.67;;;4.20;;
828;SDS011;396;52.558;13.188;2023-04-22T04:23:24;9.97;;;4.17;;
828;SDS011;396;52.558;13.188;2023-04-22T04:25:51;11.97;;;4.73;;
828;SDS011;396;52.558;13.188;2023-04-22T04:28:17;9.93;;;4.20;;
828;SDS011;396;52.558;13.188;2023-04-22T04:30:44;23.83;;;5.00;;
828;SDS011;396;52.558;13.188;2023-04-22T04:33:12;7.70;;;3.77;;
828;SDS011;396;52.558;13.188;2023-04-22T04:35:41;9.87;;;4.00;;
828;SDS011;396;52.558;13.188;2023-04-22T04:38:08;12.20;;;5.03;;
828;SDS011;396;52.558;13.188;2023-04-22T04:40:35;9.80;;;4.53;;
828;SDS011;396;52.558;13.188;2023-04-22T04:43:02;9.27;;;4.37;;
828;SDS011;396;52.558;13.188;2023-04-22T04:45:32;9.83;;;4.90;;
828;SDS011;396;52.558;13.188;2023-04-22T04:48:00;13.83;;;5.53;;
828;SDS011;396;52.558;13.188;2023-04-22T04:50:29;11.10;;;4.73;;
828;SDS011;396;52.558;13.188;2023-04-22T04:52:56;11.27;;;5.03;;
828;SDS011;396;52.558;13.188;2023-04-22T04:55:22;10.73;;;5.33;;
828;SDS011;396;52.558;13.188;2023-04-22T04:57:49;13.43;;;5.10;;
828;SDS011;396;52.558;13.188;2023-04-22T05:00:16;10.40;;;4.63;;
828;SDS011;396;52.558;13.188;2023-04-22T05:02:42;11.37;;;5.10;;
828;SDS011;396;52.558;13.188;2023-04-22T05:05:09;10.13;;;4.57;;
828;SDS011;396;52.558;13.188;2023-04-22T05:07:37;8.80;;;4.20;;
828;SDS011;396;52.558;13.188;2023-04-22T05:10:04;11.37;;;4.43;;
828;SDS011;396;52.558;13.188;2023-04-22T05:12:31;9.87;;;4.17;;
828;SDS011;396;52.558;13.188;2023-04-22T05:14:58;12.40;;;5.93;;
828;SDS011;396;52.558;13.188;2023-04-22T05:17:25;10.37;;;4.73;;
828;SDS011;396;52.558;13.188;2023-04-22T05:19:51;14.10;;;5.10;;
828;SDS011;396;52.558;13.188;2023-04-22T05:22:18;12.30;;;5.43;;
828;SDS011;396;52.558;13.188;2023-04-22T05:24:46;10.60;;;4.50;;
828;SDS011;396;52.558;13.188;2023-04-22T05:27:13;19.83;;;5.00;;
828;SDS011;396;52.558;13.188;2023-04-22T05:29:39;11.13;;;5.03;;
828;SDS011;396;52.558;13.188;2023-04-22T05:32:06;12.57;;;5.40;;
828;SDS011;396;52.558;13.188;2023-04-22T05:34:33;9.73;;;4.40;;
828;SDS011;396;52.558;13.188;2023-04-22T05:37:01;9.57;;;4.47;;
828;SDS011;396;52.558;13.188;2023-04-22T05:39:28;8.70;;;4.10;;
828;SDS011;396;52.558;13.188;2023-04-22T05:41:56;9.10;;;4.00;;
828;SDS011;396;52.558;13.188;2023-04-22T05:44:22;13.90;;;5.57;;
828;SDS011;396;52.558;13.188;2023-04-22T05:46:49;11.47;;;4.93;;
828;SDS011;396;52.558;13.188;2023-04-22T05:49:16;13.23;;;4.70;;
828;SDS011;396;52.558;13.188;2023-04-22T05:51:42;14.33;;;5.00;;
828;SDS011;396;52.558;13.188;2023-04-22T05:54:09;11.27;;;5.30;;
828;SDS011;396;52.558;13.188;2023-04-22T05:56:35;16.57;;;5.30;;
828;SDS011;396;52.558;13.188;2023-04-22T05:59:03;11.27;;;4.87;;
828;SDS011;396;52.558;13.188;2023-04-22T06:01:30;9.63;;;5.07;;
828;SDS011;396;52.558;13.188;2023-04-22T06:03:57;10.53;;;4.47;;
828;SDS011;396;52.558;13.188;2023-04-22T06:06:23;9.70;;;5.27;;
828;SDS011;396;52.558;13.188;2023-04-22T06:08:50;8.97;;;4.33;;
828;SDS011;396;52.558;13.188;2023-04-22T06:11:16;12.70;;;5.60;;
828;SDS011;396;52.558;13.188;2023-04-22T06:13:43;11.33;;;5.00;;
828;SDS011;396;52.558;13.188;2023-04-22T06:16:11;9.90;;;4.60;;
828;SDS011;396;52.558;13.188;2023-04-22T06:18:38;12.37;;;5.13;;
828;SDS011;396;52.558;13.188;2023-04-22T06:21:04;11.57;;;5.00;;
828;SDS011;396;52.558;13.188;2023-04-22T06:23:31;9.67;;;4.30;;
828;SDS011;396;52.558;13.188;2023-04-22T06:25:58;10.73;;;5.20;;
828;SDS011;396;52.558;13.188;2023-04-22T06:28:25;11.73;;;5.67;;
828;SDS011;396;52.558;13.188;2023-04-22T06:30:52;11.40;;;5.00;;
828;SDS011;396;52.558;13.188;2023-04-22T06:33:20;13.13;;;5.33;;
828;SDS011;396;52.558;13.188;2023-04-22T06:35:46;10.27;;;5.27;;
828;SDS011;396;52.558;13.188;2023-04-22T06:38:13;12.47;;;5.30;;
828;SDS011;396;52.558;13.188;2023-04-22T06:40:40;11.00;;;4.90;;
828;SDS011;396;52.558;13.188;2023-04-22T06:43:07;12.87;;;5.60;;
828;SDS011;396;52.558;13.188;2023-04-22T06:45:34;11.20;;;5.27;;
828;SDS011;396;52.558;13.188;2023-04-22T06:48:00;16.27;;;5.80;;
828;SDS011;396;52.558;13.188;2023-04-22T06:50:28;13.27;;;5.17;;
828;SDS011;396;52.558;13.188;2023-04-22T06:52:55;11.73;;;5.27;;
828;SDS011;396;52.558;13.188;2023-04-22T06:55:21;9.57;;;4.20;;
828;SDS011;396;52.558;13.188;2023-04-22T06:57:48;10.97;;;5.17;;
828;SDS011;396;52.558;13.188;2023-04-22T07:00:16;12.80;;;5.40;;
828;SDS011;396;52.558;13.188;2023-04-22T07:02:42;11.13;;;4.80;;
828;SDS011;396;52.558;13.188;2023-04-22T07:05:09;10.20;;;4.63;;
828;SDS011;396;52.558;13.188;2023-04-22T07:07:38;10.17;;;4.70;;
828;SDS011;396;52.558;13.188;2023-04-22T07:10:05;11.13;;;4.93;;
828;SDS011;396;52.558;13.188;2023-04-22T07:12:32;14.77;;;6.03;;
828;SDS011;396;52.558;13.188;2023-04-22T07:14:58;13.13;;;5.53;;
828;SDS011;396;52.558;13.188;2023-04-22T07:17:25;14.77;;;5.10;;
828;SDS011;396;52.558;13.188;2023-04-22T07:19:51;12.37;;;4.73;;
828;SDS011;396;52.558;13.188;2023-04-22T07:22:18;12.63;;;5.10;;
828;SDS011;396;52.558;13.188;2023-04-22T07:24:46;11.30;;;5.10;;
828;SDS011;396;52.558;13.188;2023-04-22T07:27:13;14.37;;;5.93;;
828;SDS011;396;52.558;13.188;2023-04-22T07:29:39;9.93;;;4.90;;
828;SDS011;396;52.558;13.188;2023-04-22T07:32:06;10.20;;;4.73;;
828;SDS011;396;52.558;13.188;2023-04-22T07:34:33;11.63;;;4.73;;
828;SDS011;396;52.558;13.188;2023-04-22T07:36:59;12.23;;;4.60;;
828;SDS011;396;52.558;13.188;2023-04-22T07:39:26;16.83;;;5.10;;
828;SDS011;396;52.558;13.188;2023-04-22T07:41:54;14.80;;;5.37;;
828;SDS011;396;52.558;13.188;2023-04-22T07:44:21;23.37;;;5.77;;
828;SDS011;396;52.558;13.188;2023-04-22T07:46:48;10.03;;;4.63;;
828;SDS011;396;52.558;13.188;2023-04-22T07:49:15;11.80;;;4.83;;
828;SDS011;396;52.558;13.188;2023-04-22T07:51:42;9.70;;;3.90;;
828;SDS011;396;52.558;13.188;2023-04-22T07:54:09;14.40;;;5.27;;
828;SDS011;396;52.558;13.188;2023-04-22T07:56:35;11.10;;;4.43;;
828;SDS011;396;52.558;13.188;2023-04-22T07:59:03;12.70;;;4.87;;
828;SDS011;396;52.558;13.188;2023-04-22T08:01:30;10.13;;;4.73;;
828;SDS011;396;52.558;13.188;2023-04-22T08:03:56;13.27;;;4.53;;
828;SDS011;396;52.558;13.188;2023-04-22T08:06:23;10.17;;;4.57;;
828;SDS011;396;52.558;13.188;2023-04-22T08:08:50;11.13;;;4.90;;
828;SDS011;396;52.558;13.188;2023-04-22T08:11:16;10.00;;;4.80;;
828;SDS011;396;52.558;13.188;2023-04-22T08:13:43;10.57;;;5.23;;
828;SDS011;396;52.558;13.188;2023-04-22T08:16:11;10.07;;;4.73;;
828;SDS011;396;52.558;13.188;2023-04-22T08:18:38;17.63;;;4.70;;
828;SDS011;396;52.558;13.188;2023-04-22T08:21:04;15.50;;;4.77;;
828;SDS011;396;52.558;13.188;2023-04-22T08:23:31;11.40;;;5.20;;
828;SDS011;396;52.558;13.188;2023-04-22T08:25:57;14.53;;;4.97;;
828;SDS011;396;52.558;13.188;2023-04-22T08:28:24;11.17;;;4.70;;
828;SDS011;396;52.558;13.188;2023-04-22T08:30:51;15.10;;;3.83;;
828;SDS011;396;52.558;13.188;2023-04-22T08:33:19;10.33;;;3.40;;
828;SDS011;396;52.558;13.188;2023-04-22T08:35:45;11.43;;;5.00;;
828;SDS011;396;52.558;13.188;2023-04-22T08:38:12;12.90;;;4.90;;
828;SDS011;396;52.558;13.188;2023-04-22T08:40:39;9.87;;;4.30;;
828;SDS011;396;52.558;13.188;2023-04-22T08:43:07;9.60;;;4.10;;
828;SDS011;396;52.558;13.188;2023-04-22T08:45:34;8.93;;;3.83;;
828;SDS011;396;52.558;13.188;2023-04-22T08:48:04;9.80;;;4.23;;
828;SDS011;396;52.558;13.188;2023-04-22T08:50:34;9.47;;;3.93;;
828;SDS011;396;52.558;13.188;2023-04-22T08:53:02;7.30;;;3.40;;
828;SDS011;396;52.558;13.188;2023-04-22T08:55:29;9.27;;;4.23;;
828;SDS011;396;52.558;13.188;2023-04-22T08:57:56;9.00;;;3.67;;
828;SDS011;396;52.558;13.188;2023-04-22T09:00:25;8.00;;;3.80;;
828;SDS011;396;52.558;13.188;2023-04-22T09:02:52;8.60;;;3.67;;
828;SDS011;396;52.558;13.188;2023-04-22T09:05:19;10.00;;;4.27;;
828;SDS011;396;52.558;13.188;2023-04-22T09:07:50;11.87;;;4.70;;
828;SDS011;396;52.558;13.188;2023-04-22T09:10:17;12.87;;;4.23;;
828;SDS011;396;52.558;13.188;2023-04-22T09:12:44;9.53;;;3.83;;
828;SDS011;396;52.558;13.188;2023-04-22T09:15:12;11.17;;;4.80;;
828;SDS011;396;52.558;13.188;2023-04-22T09:17:39;15.80;;;4.83;;
828;SDS011;396;52.558;13.188;2023-04-22T09:20:07;7.83;;;3.70;;
828;SDS011;396;52.558;13.188;2023-04-22T09:22:37;11.40;;;3.37;;
828;SDS011;396;52.558;13.188;2023-04-22T09:25:13;10.77;;;3.80;;
828;SDS011;396;52.558;13.188;2023-04-22T09:27:41;7.87;;;3.63;;
828;SDS011;396;52.558;13.188;2023-04-22T09:30:08;7.40;;;3.20;;
828;SDS011;396;52.558;13.188;2023-04-22T09:32:35;9.23;;;3.77;;
828;SDS011;396;52.558;13.188;2023-04-22T09:35:02;9.40;;;3.80;;
828;SDS011;396;52.558;13.188;2023-04-22T09:37:28;8.90;;;3.43;;
828;SDS011;396;52.558;13.188;2023-04-22T09:39:56;9.20;;;3.57;;
828;SDS011;396;52.558;13.188;2023-04-22T09:42:24;7.97;;;3.30;;
828;SDS011;396;52.558;13.188;2023-04-22T09:44:51;10.63;;;4.27;;
828;SDS011;396;52.558;13.188;2023-04-22T09:47:17;8.00;;;3.53;;
828;SDS011;396;52.558;13.188;2023-04-22T09:49:45;17.93;;;3.13;;
828;SDS011;396;52.558;13.188;2023-04-22T09:52:19;11.53;;;3.00;;
828;SDS011;396;52.558;13.188;2023-04-22T09:54:48;6.50;;;3.30;;
828;SDS011;396;52.558;13.188;2023-04-22T09:57:16;8.27;;;3.23;;
828;SDS011;396;52.558;13.188;2023-04-22T09:59:44;8.33;;;3.60;;
828;SDS011;396;52.558;13.188;2023-04-22T10:02:10;6.67;;;3.10;;
828;SDS011;396;52.558;13.188;2023-04-22T10:04:37;8.17;;;3.47;;
828;SDS011;396;52.558;13.188;2023-04-22T10:07:04;7.90;;;3.20;;
828;SDS011;396;52.558;13.188;2023-04-22T10:09:31;9.03;;;3.20;;
828;SDS011;396;52.558;13.188;2023-04-22T10:11:58;8.10;;;2.90;;
828;SDS011;396;52.558;13.188;2023-04-22T10:14:25;6.43;;;2.60;;
828;SDS011;396;52.558;13.188;2023-04-22T10:16:55;7.67;;;3.40;;
828;SDS011;396;52.558;13.188;2023-04-22T10:19:24;9.23;;;3.50;;
828;SDS011;396;52.558;13.188;2023-04-22T10:21:53;6.83;;;3.20;;
828;SDS011;396;52.558;13.188;2023-04-22T10:24:24;8.10;;;3.20;;
828;SDS011;396;52.558;13.188;2023-04-22T10:26:53;8.17;;;3.43;;
828;SDS011;396;52.558;13.188;2023-04-22T10:29:21;9.10;;;3.33;;
828;SDS011;396;52.558;13.188;2023-04-22T10:31:54;7.47;;;2.83;;
828;SDS011;396;52.558;13.188;2023-04-22T10:34:22;8.13;;;2.40;;
828;SDS011;396;52.558;13.188;2023-04-22T10:36:56;6.07;;;2.47;;
828;SDS011;396;52.558;13.188;2023-04-22T10:39:25;7.07;;;2.90;;
828;SDS011;396;52.558;13.188;2023-04-22T10:41:54;8.57;;;3.00;;
828;SDS011;396;52.558;13.188;2023-04-22T10:44:26;8.50;;;3.60;;
828;SDS011;396;52.558;13.188;2023-04-22T10:46:56;7.83;;;3.27;;
828;SDS011;396;52.558;13.188;2023-04-22T10:49:28;6.10;;;2.73;;
828;SDS011;396;52.558;13.188;2023-04-22T10:51:57;6.80;;;2.80;;
828;SDS011;396;52.558;13.188;2023-04-22T10:57:27;14.43;;;3.40;;
828;SDS011;396;52.558;13.188;2023-04-22T10:59:59;7.00;;;2.83;;
828;SDS011;396;52.558;13.188;2023-04-22T11:02:27;8.00;;;2.90;;
828;SDS011;396;52.558;13.188;2023-04-22T11:07:46;11.50;;;3.33;;
828;SDS011;396;52.558;13.188;2023-04-22T11:12:59;6.30;;;2.63;;
828;SDS011;396;52.558;13.188;2023-04-22T11:15:27;8.20;;;3.47;;
828;SDS011;396;52.558;13.188;2023-04-22T11:17:57;7.30;;;2.63;;
828;SDS011;396;52.558;13.188;2023-04-22T11:20:24;8.60;;;3.37;;
828;SDS011;396;52.558;13.188;2023-04-22T11:22:51;7.57;;;2.90;;
828;SDS011;396;52.558;13.188;2023-04-22T11:25:19;7.30;;;3.30;;
828;SDS011;396;52.558;13.188;2023-04-22T11:27:46;8.03;;;2.83;;
828;SDS011;396;52.558;13.188;2023-04-22T11:30:14;6.60;;;2.90;;
828;SDS011;396;52.558;13.188;2023-04-22T11:32:42;7.63;;;3.10;;
828;SDS011;396;52.558;13.188;2023-04-22T11:35:13;7.80;;;3.03;;
828;SDS011;396;52.558;13.188;2023-04-22T11:37:41;7.90;;;3.40;;
828;SDS011;396;52.558;13.188;2023-04-22T11:40:09;16.00;;;3.37;;
828;SDS011;396;52.558;13.188;2023-04-22T11:42:36;6.73;;;3.20;;
828;SDS011;396;52.558;13.188;2023-04-22T11:45:03;7.03;;;2.70;;
828;SDS011;396;52.558;13.188;2023-04-22T11:47:32;8.30;;;3.23;;
828;SDS011;396;52.558;13.188;2023-04-22T11:50:00;7.17;;;3.00;;
828;SDS011;396;52.558;13.188;2023-04-22T11:52:42;6.77;;;3.07;;
828;SDS011;396;52.558;13.188;2023-04-22T11:55:10;6.80;;;3.10;;
828;SDS011;396;52.558;13.188;2023-04-22T11:57:36;7.87;;;3.20;;
828;SDS011;396;52.558;13.188;2023-04-22T12:00:03;6.50;;;2.30;;
828;SDS011;396;52.558;13.188;2023-04-22T12:02:31;6.00;;;2.27;;
828;SDS011;396;52.558;13.188;2023-04-22T12:04:58;6.67;;;2.50;;
828;SDS011;396;52.558;13.188;2023-04-22T12:07:25;6.90;;;2.90;;
828;SDS011;396;52.558;13.188;2023-04-22T12:09:53;5.10;;;2.30;;
828;SDS011;396;52.558;13.188;2023-04-22T12:12:22;6.47;;;2.80;;
828;SDS011;396;52.558;13.188;2023-04-22T12:14:49;8.70;;;3.43;;
828;SDS011;396;52.558;13.188;2023-04-22T12:17:20;6.17;;;2.40;;
828;SDS011;396;52.558;13.188;2023-04-22T12:19:48;8.30;;;3.43;;
828;SDS011;396;52.558;13.188;2023-04-22T12:22:25;6.53;;;3.60;;
828;SDS011;396;52.558;13.188;2023-04-22T12:24:54;6.43;;;2.73;;
828;SDS011;396;52.558;13.188;2023-04-22T12:27:23;8.03;;;3.63;;
828;SDS011;396;52.558;13.188;2023-04-22T12:29:50;6.97;;;2.97;;
828;SDS011;396;52.558;13.188;2023-04-22T12:32:18;6.47;;;2.60;;
828;SDS011;396;52.558;13.188;2023-04-22T12:34:45;6.57;;;2.90;;
828;SDS011;396;52.558;13.188;2023-04-22T12:37:12;7.13;;;3.00;;
828;SDS011;396;52.558;13.188;2023-04-22T12:39:39;6.17;;;2.60;;
828;SDS011;396;52.558;13.188;2023-04-22T12:42:07;7.43;;;2.80;;
828;SDS011;396;52.558;13.188;2023-04-22T12:44:34;6.03;;;2.90;;
828;SDS011;396;52.558;13.188;2023-04-22T12:47:00;9.23;;;2.43;;
828;SDS011;396;52.558;13.188;2023-04-22T12:49:27;6.90;;;2.70;;
828;SDS011;396;52.558;13.188;2023-04-22T12:51:54;8.63;;;2.80;;
828;SDS011;396;52.558;13.188;2023-04-22T12:54:21;7.07;;;2.90;;
828;SDS011;396;52.558;13.188;2023-04-22T12:56:49;9.03;;;3.37;;
828;SDS011;396;52.558;13.188;2023-04-22T12:59:17;7.23;;;2.80;;
828;SDS011;396;52.558;13.188;2023-04-22T13:01:44;6.87;;;2.80;;
828;SDS011;396;52.558;13.188;2023-04-22T13:04:11;6.80;;;2.37;;
828;SDS011;396;52.558;13.188;2023-04-22T13:06:37;5.60;;;2.37;;
828;SDS011;396;52.558;13.188;2023-04-22T13:09:05;6.83;;;2.57;;
828;SDS011;396;52.558;13.188;2023-04-22T13:11:32;7.77;;;3.13;;
828;SDS011;396;52.558;13.188;2023-04-22T13:13:59;6.33;;;2.90;;
828;SDS011;396;52.558;13.188;2023-04-22T13:16:26;8.13;;;2.50;;
828;SDS011;396;52.558;13.188;2023-04-22T13:18:53;6.53;;;2.73;;
828;SDS011;396;52.558;13.188;2023-04-22T13:21:20;7.07;;;2.57;;
828;SDS011;396;52.558;13.188;2023-04-22T13:23:46;5.20;;;2.27;;
828;SDS011;396;52.558;13.188;2023-04-22T13:26:13;6.33;;;2.50;;
828;SDS011;396;52.558;13.188;2023-04-22T13:28:39;8.50;;;2.40;;
828;SDS011;396;52.558;13.188;2023-04-22T13:31:07;9.50;;;2.77;;
828;SDS011;396;52.558;13.188;2023-04-22T13:33:35;5.83;;;2.63;;
828;SDS011;396;52.558;13.188;2023-04-22T13:36:03;8.47;;;2.93;;
828;SDS011;396;52.558;13.188;2023-04-22T13:38:30;7.23;;;2.80;;
828;SDS011;396;52.558;13.188;2023-04-22T13:40:56;8.03;;;3.20;;
828;SDS011;396;52.558;13.188;2023-04-22T13:43:23;6.07;;;2.43;;
828;SDS011;396;52.558;13.188;2023-04-22T13:45:50;5.47;;;2.13;;
828;SDS011;396;52.558;13.188;2023-04-22T13:48:16;9.90;;;3.43;;
828;SDS011;396;52.558;13.188;2023-04-22T13:50:44;7.80;;;2.80;;
828;SDS011;396;52.558;13.188;2023-04-22T13:53:11;5.80;;;2.10;;
828;SDS011;396;52.558;13.188;2023-04-22T13:55:38;7.57;;;2.83;;
828;SDS011;396;52.558;13.188;2023-04-22T13:58:07;6.07;;;2.33;;
828;SDS011;396;52.558;13.188;2023-04-22T14:00:33;8.87;;;3.30;;
828;SDS011;396;52.558;13.188;2023-04-22T14:03:00;7.10;;;2.93;;
828;SDS011;396;52.558;13.188;2023-04-22T14:05:27;9.10;;;3.30;;
828;SDS011;396;52.558;13.188;2023-04-22T14:07:55;6.70;;;2.57;;
828;SDS011;396;52.558;13.188;2023-04-22T14:10:21;9.10;;;3.00;;
828;SDS011;396;52.558;13.188;2023-04-22T14:12:49;6.53;;;2.57;;
828;SDS011;396;52.558;13.188;2023-04-22T14:15:15;5.67;;;2.50;;
828;SDS011;396;52.558;13.188;2023-04-22T14:17:42;7.53;;;2.80;;
828;SDS011;396;52.558;13.188;2023-04-22T14:20:13;7.83;;;2.87;;
828;SDS011;396;52.558;13.188;2023-04-22T14:22:40;6.30;;;2.90;;
828;SDS011;396;52.558;13.188;2023-04-22T14:25:08;8.20;;;3.23;;
828;SDS011;396;52.558;13.188;2023-04-22T14:27:35;6.20;;;3.00;;
828;SDS011;396;52.558;13.188;2023-04-22T14:30:02;6.97;;;2.97;;
828;SDS011;396;52.558;13.188;2023-04-22T14:32:30;8.33;;;2.90;;
828;SDS011;396;52.558;13.188;2023-04-22T14:34:57;6.00;;;2.80;;
828;SDS011;396;52.558;13.188;2023-04-22T14:37:23;9.20;;;4.00;;
828;SDS011;396;52.558;13.188;2023-04-22T14:39:50;7.07;;;3.20;;
828;SDS011;396;52.558;13.188;2023-04-22T14:42:18;6.53;;;3.00;;
828;SDS011;396;52.558;13.188;2023-04-22T14:44:45;6.80;;;3.23;;
828;SDS011;396;52.558;13.188;2023-04-22T14:47:12;7.67;;;3.70;;
828;SDS011;396;52.558;13.188;2023-04-22T14:49:38;7.70;;;3.20;;
828;SDS011;396;52.558;13.188;2023-04-22T14:52:05;17.23;;;3.00;;
828;SDS011;396;52.558;13.188;2023-04-22T14:54:31;7.53;;;3.10;;
828;SDS011;396;52.558;13.188;2023-04-22T14:56:58;5.83;;;2.20;;
828;SDS011;396;52.558;13.188;2023-04-22T14:59:27;7.67;;;3.53;;
828;SDS011;396;52.558;13.188;2023-04-22T15:01:53;10.20;;;3.90;;
828;SDS011;396;52.558;13.188;2023-04-22T15:04:20;8.70;;;3.60;;
828;SDS011;396;52.558;13.188;2023-04-22T15:06:46;6.77;;;3.10;;
828;SDS011;396;52.558;13.188;2023-04-22T15:09:13;11.80;;;2.90;;
828;SDS011;396;52.558;13.188;2023-04-22T15:11:40;6.77;;;2.93;;
828;SDS011;396;52.558;13.188;2023-04-22T15:14:06;7.57;;;2.97;;
828;SDS011;396;52.558;13.188;2023-04-22T15:16:34;7.90;;;3.20;;
828;SDS011;396;52.558;13.188;2023-04-22T15:19:01;8.10;;;3.40;;
828;SDS011;396;52.558;13.188;2023-04-22T15:21:28;6.83;;;2.93;;
828;SDS011;396;52.558;13.188;2023-04-22T15:23:54;8.87;;;3.63;;
828;SDS011;396;52.558;13.188;2023-04-22T15:26:21;7.83;;;3.30;;
828;SDS011;396;52.558;13.188;2023-04-22T15:28:47;6.67;;;2.87;;
828;SDS011;396;52.558;13.188;2023-04-22T15:31:15;6.43;;;2.80;;
828;SDS011;396;52.558;13.188;2023-04-22T15:33:43;8.60;;;3.50;;